Time;durP1;ratioP1;P1;durP2;ratioP2;P2;SDS_P1;SDS_P2;PMS_P1;PMS_P2;Temp;Humidity;BMP_temperature;BMP_pressure;BME280_temperature;BME280_humidity;BME280_pressure;Samples;Min_cycle;Max_cycle;Signal;HPM_P1;HPM_P2
2021/05/24 00:01:51;;;;;;;;;;;;;;;16.48;75.80;93492.34;5051195;28;19948;-81
2021/05/24 00:04:17;;;;;;;;;;;;;;;16.39;77.39;93506.78;5050910;28;19930;-82
2021/05/24 00:06:43;;;;;;;;;;;;;;;16.35;78.71;93500.47;5051040;28;19932;-81
2021/05/24 00:09:09;;;;;;;;;;;;;;;16.32;79.37;93500.94;5051226;28;19925;-81
2021/05/24 00:11:35;;;;;;;;;;;;;;;16.29;79.06;93499.63;5051017;28;20399;-81
2021/05/24 00:14:06;;;;;;;;;;;;;;;16.22;77.42;93499.81;5050920;28;19929;-80
2021/05/24 00:16:32;;;;;;;;;;;;;;;16.14;78.05;93503.56;5051208;28;19930;-80
2021/05/24 00:18:58;;;;;;;;;;;;;;;16.08;79.08;93496.75;5050645;28;20411;-81
2021/05/24 00:21:24;;;;;;;;;;;;;;;16.06;79.21;93500.59;5051048;28;19925;-80
2021/05/24 00:23:51;;;;;;;;;;;;;;;16.01;79.46;93496.91;5050716;28;20330;-81
2021/05/24 00:26:17;;;;;;;;;;;;;;;15.98;79.97;93497.34;5050767;28;19925;-80
2021/05/24 00:28:43;;;;;;;;;;;;;;;15.96;79.95;93499.41;5050908;28;20293;-81
2021/05/24 00:31:10;;;;;;;;;;;;;;;15.91;80.18;93496.72;5050830;28;19963;-81
2021/05/24 00:33:36;;;;;;;;;;;;;;;15.87;80.52;93493.81;5050615;28;19928;-81
2021/05/24 00:36:03;;;;;;;;;;;;;;;15.85;81.23;93502.84;5050790;28;19936;-81
2021/05/24 00:38:29;;;;;;;;;;;;;;;15.82;81.19;93498.09;5050782;28;19928;-81
2021/05/24 00:40:55;;;;;;;;;;;;;;;15.79;81.97;93514.13;5050775;28;19928;-80
2021/05/24 00:43:21;;;;;;;;;;;;;;;15.76;82.65;93533.50;5050673;28;19928;-80
2021/05/24 00:45:47;;;;;;;;;;;;;;;15.27;87.28;93539.13;5050333;28;19925;-80
2021/05/24 00:48:14;;;;;;;;;;;;;;;15.12;88.77;93534.44;5049441;28;19932;-79
2021/05/24 00:50:40;;;;;;;;;;;;;;;15.17;87.37;93532.75;5050663;28;19925;-80
2021/05/24 00:53:06;;;;;;;;;;;;;;;15.17;88.10;93537.91;5050506;28;19924;-81
2021/05/24 00:55:32;;;;;;;;;;;;;;;15.15;88.26;93539.97;5050187;28;19935;-78
2021/05/24 00:57:58;;;;;;;;;;;;;;;14.91;90.08;93541.81;5050295;28;19932;-78
2021/05/24 01:00:29;;;;;;;;;;;;;;;14.86;89.67;93536.53;5050363;28;19924;-79
2021/05/24 01:02:56;;;;;;;;;;;;;;;14.93;88.65;93545.75;5050306;28;19929;-80
2021/05/24 01:05:23;;;;;;;;;;;;;;;14.92;88.46;93549.34;5050116;28;19929;-80
2021/05/24 01:07:49;;;;;;;;;;;;;;;14.91;87.58;93552.94;5050285;28;19947;-79
2021/05/24 01:10:15;;;;;;;;;;;;;;;14.88;88.17;93550.81;5050031;28;19990;-79
2021/05/24 01:12:42;;;;;;;;;;;;;;;14.92;87.43;93548.56;5050123;28;19932;-80
2021/05/24 01:15:09;;;;;;;;;;;;;;;14.86;89.43;93563.16;5049876;28;19970;-79
2021/05/24 01:17:35;;;;;;;;;;;;;;;14.82;88.21;93573.19;5050180;28;20408;-79
2021/05/24 01:20:01;;;;;;;;;;;;;;;14.80;91.10;93577.00;5050210;28;19925;-79
2021/05/24 01:22:28;;;;;;;;;;;;;;;14.73;89.37;93582.28;5049713;28;19928;-79
2021/05/24 01:24:55;;;;;;;;;;;;;;;14.75;88.76;93582.88;5050064;28;19925;-80
2021/05/24 01:27:20;;;;;;;;;;;;;;;14.75;88.09;93590.63;5050029;28;19929;-80
2021/05/24 01:29:47;;;;;;;;;;;;;;;14.74;89.16;93593.41;5049929;28;19935;-79
2021/05/24 01:32:13;;;;;;;;;;;;;;;14.73;88.32;93597.81;5049855;28;20335;-79
2021/05/24 01:34:39;;;;;;;;;;;;;;;14.75;88.60;93595.81;5049489;28;19925;-79
2021/05/24 01:37:05;;;;;;;;;;;;;;;14.74;88.49;93601.16;5049715;28;19975;-79
2021/05/24 01:39:32;;;;;;;;;;;;;;;14.67;88.67;93599.47;5049856;28;20300;-79
2021/05/24 01:41:58;;;;;;;;;;;;;;;14.68;88.37;93600.28;5049442;28;20392;-79
2021/05/24 01:44:28;;;;;;;;;;;;;;;14.65;88.96;93595.53;5049561;28;19932;-79
2021/05/24 01:46:54;;;;;;;;;;;;;;;14.61;88.80;93591.81;5049585;28;19929;-80
2021/05/24 01:49:20;;;;;;;;;;;;;;;14.62;88.40;93594.19;5049822;28;19925;-80
2021/05/24 01:51:46;;;;;;;;;;;;;;;14.57;88.35;93589.72;5049436;28;19925;-79
2021/05/24 01:54:13;;;;;;;;;;;;;;;14.57;88.72;93594.06;5049491;28;19966;-80
2021/05/24 01:56:40;;;;;;;;;;;;;;;14.50;88.86;93596.78;5049601;28;19924;-79
2021/05/24 01:59:06;;;;;;;;;;;;;;;14.45;89.60;93599.25;5050030;28;19936;-80
2021/05/24 02:01:32;;;;;;;;;;;;;;;14.35;89.64;93594.63;5054047;28;19925;-79
2021/05/24 02:03:58;;;;;;;;;;;;;;;14.23;90.36;93599.00;5053759;28;19947;-80
2021/05/24 02:06:24;;;;;;;;;;;;;;;14.13;91.39;93602.13;5053524;28;19924;-79
2021/05/24 02:08:50;;;;;;;;;;;;;;;14.05;91.66;93595.47;5053954;28;19936;-79
2021/05/24 02:11:16;;;;;;;;;;;;;;;14.05;91.50;93587.72;5053454;28;19929;-80
2021/05/24 02:13:44;;;;;;;;;;;;;;;14.01;92.19;93589.97;5053644;28;19925;-79
2021/05/24 02:16:10;;;;;;;;;;;;;;;14.00;92.22;93596.16;5053141;28;19971;-80
2021/05/24 02:18:36;;;;;;;;;;;;;;;13.96;92.55;93589.84;5052961;28;20392;-80
2021/05/24 02:21:03;;;;;;;;;;;;;;;13.92;93.40;93593.88;5053331;28;20284;-80
2021/05/24 02:23:30;;;;;;;;;;;;;;;13.88;93.55;93592.72;5053225;28;19924;-80
2021/05/24 02:25:56;;;;;;;;;;;;;;;13.84;93.53;93607.13;5053045;28;19936;-79
2021/05/24 02:28:22;;;;;;;;;;;;;;;13.84;93.42;93612.28;5053013;28;20308;-81
2021/05/24 02:30:49;;;;;;;;;;;;;;;13.82;93.45;93615.06;5052835;28;19924;-80
2021/05/24 02:33:15;;;;;;;;;;;;;;;13.78;94.47;93619.09;5053308;28;19983;-80
2021/05/24 02:35:41;;;;;;;;;;;;;;;13.73;95.28;93624.91;5052962;28;19932;-80
2021/05/24 02:38:07;;;;;;;;;;;;;;;13.68;96.28;93626.56;5053023;28;19928;-81
2021/05/24 02:40:33;;;;;;;;;;;;;;;13.57;96.70;93641.78;5052751;28;19925;-80
2021/05/24 02:43:01;;;;;;;;;;;;;;;13.48;97.41;93643.88;5052567;28;19925;-80
2021/05/24 02:45:27;;;;;;;;;;;;;;;13.47;96.87;93646.69;5039569;28;19944;-79
2021/05/24 02:47:54;;;;;;;;;;;;;;;13.44;96.08;93647.09;5072576;28;19924;-79
2021/05/24 02:50:21;;;;;;;;;;;;;;;13.44;96.54;93649.66;5072359;28;19935;-79
2021/05/24 02:52:47;;;;;;;;;;;;;;;13.44;96.18;93653.03;5072741;28;19935;-80
2021/05/24 02:55:13;;;;;;;;;;;;;;;13.42;96.65;93664.59;5072371;28;19970;-80
2021/05/24 02:57:39;;;;;;;;;;;;;;;13.42;95.50;93673.09;5072514;28;19924;-79
2021/05/24 03:00:07;;;;;;;;;;;;;;;13.43;95.67;93673.91;5072663;28;19986;-79
2021/05/24 03:02:33;;;;;;;;;;;;;;;13.41;96.96;93671.53;5072266;28;20394;-79
2021/05/24 03:05:00;;;;;;;;;;;;;;;13.35;95.95;93667.22;5072129;28;19924;-80
2021/05/24 03:07:26;;;;;;;;;;;;;;;13.29;98.93;93675.81;5072317;28;19932;-80
2021/05/24 03:09:53;;;;;;;;;;;;;;;13.23;97.19;93667.94;5072300;28;20380;-80
2021/05/24 03:12:19;;;;;;;;;;;;;;;13.34;97.40;93669.00;5071440;28;19924;-81
2021/05/24 03:14:45;;;;;;;;;;;;;;;13.30;97.46;93672.25;5072163;28;19925;-80
2021/05/24 03:17:11;;;;;;;;;;;;;;;13.32;97.46;93677.97;5072320;28;19974;-80
2021/05/24 03:19:37;;;;;;;;;;;;;;;13.30;98.41;93687.72;5072014;28;19931;-79
2021/05/24 03:22:04;;;;;;;;;;;;;;;13.29;98.49;93694.66;5072013;28;19924;-79
2021/05/24 03:24:30;;;;;;;;;;;;;;;13.19;100.00;93690.00;5072318;28;19925;-80
2021/05/24 03:26:56;;;;;;;;;;;;;;;13.25;99.12;93695.31;5072143;28;19989;-80
2021/05/24 03:29:22;;;;;;;;;;;;;;;13.31;98.88;93702.19;5071839;28;19925;-79
2021/05/24 03:31:48;;;;;;;;;;;;;;;13.33;98.32;93690.66;5071853;28;19928;-80
2021/05/24 03:34:14;;;;;;;;;;;;;;;13.42;97.99;93695.56;5072074;28;19924;-79
2021/05/24 03:36:40;;;;;;;;;;;;;;;13.40;99.12;93695.75;5071953;28;20418;-79
2021/05/24 03:39:07;;;;;;;;;;;;;;;13.41;98.21;93699.91;5071706;28;19951;-79
2021/05/24 03:41:33;;;;;;;;;;;;;;;13.50;98.53;93697.84;5071674;28;19938;-79
2021/05/24 03:43:59;;;;;;;;;;;;;;;13.50;98.06;93700.44;5071399;28;19932;-79
2021/05/24 03:46:25;;;;;;;;;;;;;;;13.54;98.30;93704.16;5071840;28;19958;-79
2021/05/24 03:48:51;;;;;;;;;;;;;;;13.58;97.98;93707.91;5071737;28;19925;-79
2021/05/24 03:51:17;;;;;;;;;;;;;;;13.62;98.37;93716.00;5071428;28;19924;-79
2021/05/24 03:53:43;;;;;;;;;;;;;;;13.60;96.80;93713.63;5071413;28;20376;-79
2021/05/24 03:56:12;;;;;;;;;;;;;;;13.71;96.68;93721.66;5071261;28;19939;-79
2021/05/24 03:58:38;;;;;;;;;;;;;;;13.79;95.50;93718.00;5071121;28;19924;-80
2021/05/24 04:01:04;;;;;;;;;;;;;;;13.88;94.64;93722.66;5071223;28;19925;-80
2021/05/24 04:03:30;;;;;;;;;;;;;;;13.95;94.37;93721.78;5071011;28;19974;-79
2021/05/24 04:05:59;;;;;;;;;;;;;;;13.99;93.45;93710.78;5071181;28;19930;-79
2021/05/24 04:08:32;;;;;;;;;;;;;;;14.10;92.49;93708.47;5071614;28;19925;-82
2021/05/24 04:10:59;;;;;;;;;;;;;;;14.14;92.48;93714.78;5071153;28;19928;-82
2021/05/24 04:13:26;;;;;;;;;;;;;;;14.16;93.53;93723.91;5070964;28;19979;-80
2021/05/24 04:15:54;;;;;;;;;;;;;;;14.13;94.38;93733.88;5071247;28;19941;-79
2021/05/24 04:18:21;;;;;;;;;;;;;;;14.11;94.79;93733.28;5071364;28;19925;-79
2021/05/24 04:20:47;;;;;;;;;;;;;;;14.25;94.40;93723.56;5070837;28;19939;-79
2021/05/24 04:23:14;;;;;;;;;;;;;;;14.30;95.07;93724.50;5071073;28;19928;-80
2021/05/24 04:25:40;;;;;;;;;;;;;;;14.40;94.02;93725.78;5070390;28;20407;-79
2021/05/24 04:28:06;;;;;;;;;;;;;;;14.48;94.96;93732.44;5070958;28;19928;-80
2021/05/24 04:30:33;;;;;;;;;;;;;;;14.66;95.40;93737.53;5070574;28;19928;-79
2021/05/24 04:32:59;;;;;;;;;;;;;;;14.71;94.97;93739.44;5070349;28;19924;-79
2021/05/24 04:35:25;;;;;;;;;;;;;;;14.85;94.01;93749.63;5070514;28;19929;-78
2021/05/24 04:37:51;;;;;;;;;;;;;;;15.05;92.68;93751.91;5070807;28;19924;-78
2021/05/24 04:40:17;;;;;;;;;;;;;;;15.16;91.42;93764.06;5070374;28;19967;-78
2021/05/24 04:42:43;;;;;;;;;;;;;;;15.23;93.17;93769.91;5070594;28;19928;-78
2021/05/24 04:45:10;;;;;;;;;;;;;;;15.21;90.97;93769.34;5070697;28;19947;-78
2021/05/24 04:47:36;;;;;;;;;;;;;;;15.40;92.11;93776.19;5070231;28;19928;-78
2021/05/24 04:50:03;;;;;;;;;;;;;;;15.67;91.22;93773.94;5070409;28;20425;-79
2021/05/24 04:52:29;;;;;;;;;;;;;;;15.84;90.34;93776.59;5070528;28;19950;-79
2021/05/24 04:54:55;;;;;;;;;;;;;;;15.96;90.02;93770.69;5070268;28;19936;-80
2021/05/24 04:57:21;;;;;;;;;;;;;;;16.09;89.51;93782.56;5070422;28;20029;-80
2021/05/24 04:59:47;;;;;;;;;;;;;;;16.16;88.45;93786.59;5070430;28;19925;-79
2021/05/24 05:02:13;;;;;;;;;;;;;;;16.25;88.32;93783.66;5070352;28;19986;-79
2021/05/24 05:04:40;;;;;;;;;;;;;;;16.43;87.47;93783.47;5069992;28;19932;-79
2021/05/24 05:07:06;;;;;;;;;;;;;;;16.51;82.78;93781.50;5070311;28;19986;-78
2021/05/24 05:09:33;;;;;;;;;;;;;;;16.65;83.77;93788.00;5070161;28;19974;-79
2021/05/24 05:11:59;;;;;;;;;;;;;;;16.84;80.02;93785.19;5069723;28;20441;-79
2021/05/24 05:14:25;;;;;;;;;;;;;;;17.06;80.51;93794.91;5070207;28;20307;-80
2021/05/24 05:16:51;;;;;;;;;;;;;;;17.05;78.34;93795.94;5070142;28;19970;-79
2021/05/24 05:19:18;;;;;;;;;;;;;;;17.25;78.67;93800.66;5069637;28;19932;-80
2021/05/24 05:21:45;;;;;;;;;;;;;;;17.23;76.95;93816.47;5069811;28;19943;-79
2021/05/24 05:24:11;;;;;;;;;;;;;;;17.10;76.01;93814.19;5069821;28;20268;-79
2021/05/24 05:26:37;;;;;;;;;;;;;;;17.16;77.59;93815.84;5069918;28;19936;-80
2021/05/24 05:29:03;;;;;;;;;;;;;;;17.25;77.10;93823.25;5070109;28;19939;-80
2021/05/24 05:31:30;;;;;;;;;;;;;;;17.35;77.09;93821.59;5069560;28;19924;-80
2021/05/24 05:33:56;;;;;;;;;;;;;;;17.49;76.93;93816.88;5069755;28;19928;-80
2021/05/24 05:36:24;;;;;;;;;;;;;;;17.69;74.54;93828.56;5069566;28;19925;-79
2021/05/24 05:38:51;;;;;;;;;;;;;;;17.92;73.70;93841.59;5069601;28;20411;-80
2021/05/24 05:41:17;;;;;;;;;;;;;;;18.15;73.53;93838.03;5069736;28;19951;-80
2021/05/24 05:43:43;;;;;;;;;;;;;;;18.33;72.44;93843.97;5069637;28;20406;-80
2021/05/24 05:46:10;;;;;;;;;;;;;;;18.40;71.84;93840.16;5069511;28;19924;-79
2021/05/24 05:48:36;;;;;;;;;;;;;;;18.33;71.89;93836.94;5069374;28;19928;-80
2021/05/24 05:51:02;;;;;;;;;;;;;;;18.05;73.30;93841.25;5069790;28;19924;-79
2021/05/24 05:53:28;;;;;;;;;;;;;;;18.01;72.33;93846.16;4886404;28;5000414;-78
2021/05/24 05:55:55;;;;;;;;;;;;;;;17.85;71.13;93850.34;5069467;28;19929;-79
2021/05/24 05:58:21;;;;;;;;;;;;;;;17.89;71.68;93854.06;5069465;28;19925;-78
2021/05/24 06:00:47;;;;;;;;;;;;;;;17.95;72.60;93846.34;5069697;28;19933;-79
2021/05/24 06:03:15;;;;;;;;;;;;;;;17.88;71.35;93857.66;5069357;28;19928;-79
2021/05/24 06:05:41;;;;;;;;;;;;;;;17.92;71.32;93852.81;5069677;28;19929;-79
2021/05/24 06:08:07;;;;;;;;;;;;;;;17.86;72.00;93849.31;5069356;28;19929;-79
2021/05/24 06:10:34;;;;;;;;;;;;;;;18.12;72.42;93844.50;5069683;28;19924;-79
2021/05/24 06:13:01;;;;;;;;;;;;;;;18.21;71.36;93844.88;5068947;28;20015;-79
2021/05/24 06:15:27;;;;;;;;;;;;;;;18.54;68.59;93843.16;5069437;28;19946;-79
2021/05/24 06:17:53;;;;;;;;;;;;;;;18.80;67.62;93838.22;5069656;28;19928;-79
2021/05/24 06:20:19;;;;;;;;;;;;;;;19.10;68.08;93849.19;5068914;28;19925;-80
2021/05/24 06:22:45;;;;;;;;;;;;;;;19.11;64.63;93868.22;5069217;28;20380;-82
2021/05/24 06:25:11;;;;;;;;;;;;;;;19.25;65.16;93848.53;5069319;28;20304;-80
2021/05/24 06:27:38;;;;;;;;;;;;;;;19.14;66.77;93850.28;5069168;28;19925;-84
2021/05/24 06:30:05;;;;;;;;;;;;;;;18.90;66.93;93849.75;5069348;28;19925;-80
2021/05/24 06:32:31;;;;;;;;;;;;;;;18.99;66.16;93850.91;5059688;28;19970;-80
2021/05/24 06:34:57;;;;;;;;;;;;;;;19.53;67.67;93846.66;5047134;28;20281;-81
2021/05/24 06:37:23;;;;;;;;;;;;;;;19.98;65.20;93859.47;5048343;28;19928;-81
2021/05/24 06:39:50;;;;;;;;;;;;;;;20.02;66.50;93857.94;5048809;28;20402;-81
2021/05/24 06:42:16;;;;;;;;;;;;;;;20.40;61.34;93845.59;5049259;28;20059;-82
2021/05/24 06:44:47;;;;;;;;;;;;;;;20.73;61.21;93837.59;5048726;28;19928;-85
2021/05/24 06:47:14;;;;;;;;;;;;;;;20.27;63.00;93831.19;5051129;28;20307;-84
2021/05/24 06:49:40;;;;;;;;;;;;;;;20.58;62.34;93822.69;5052983;28;19924;-84
2021/05/24 06:52:06;;;;;;;;;;;;;;;21.23;58.56;93827.53;5053251;28;19928;-83
2021/05/24 06:54:32;;;;;;;;;;;;;;;21.26;59.61;93817.59;5052876;28;19928;-83
2021/05/24 06:57:03;;;;;;;;;;;;;;;21.51;57.72;93818.63;5052774;28;19929;-83
2021/05/24 06:59:29;;;;;;;;;;;;;;;21.22;58.24;93812.91;5052961;28;20343;-83
2021/05/24 07:01:55;;;;;;;;;;;;;;;21.63;56.20;93821.75;5052762;28;19976;-83
2021/05/24 07:04:22;;;;;;;;;;;;;;;22.11;54.78;93817.97;5052672;28;20070;-84
2021/05/24 07:06:48;;;;;;;;;;;;;;;22.45;54.23;93824.41;5052883;28;19944;-82
2021/05/24 07:09:14;;;;;;;;;;;;;;;22.77;53.07;93818.00;5052564;28;20491;-85
2021/05/24 07:11:40;;;;;;;;;;;;;;;23.12;52.62;93833.72;5052963;28;19928;-85
2021/05/24 07:14:06;;;;;;;;;;;;;;;23.52;51.15;93837.13;5052920;28;19925;-85
2021/05/24 07:16:32;;;;;;;;;;;;;;;23.31;52.57;93829.44;5052896;28;19925;-85
2021/05/24 07:18:58;;;;;;;;;;;;;;;23.31;53.08;93826.81;5053142;28;19928;-85
2021/05/24 07:21:25;;;;;;;;;;;;;;;23.57;50.46;93825.81;5052731;28;19924;-84
2021/05/24 07:23:51;;;;;;;;;;;;;;;23.75;50.86;93821.72;5052293;28;19924;-86
2021/05/24 07:26:17;;;;;;;;;;;;;;;23.96;50.02;93824.13;5051480;28;19929;-84
2021/05/24 07:28:44;;;;;;;;;;;;;;;23.99;51.10;93826.19;5051812;28;19925;-84
2021/05/24 07:31:10;;;;;;;;;;;;;;;24.24;50.57;93821.72;5050579;28;19925;-84
2021/05/24 07:33:36;;;;;;;;;;;;;;;24.36;50.95;93824.75;5069767;28;19936;-84
2021/05/24 07:36:02;;;;;;;;;;;;;;;24.44;50.72;93822.56;5070881;28;20289;-84
2021/05/24 07:38:29;;;;;;;;;;;;;;;24.55;49.94;93831.88;5071810;28;19924;-84
2021/05/24 07:40:55;;;;;;;;;;;;;;;24.68;48.58;93831.16;5073084;28;19928;-86
2021/05/24 07:43:21;;;;;;;;;;;;;;;24.89;46.76;93824.88;5071715;28;19928;-84
2021/05/24 07:45:47;;;;;;;;;;;;;;;24.77;48.55;93825.28;5071464;28;19947;-85
2021/05/24 07:48:13;;;;;;;;;;;;;;;24.89;46.88;93827.50;5071576;28;19974;-85
2021/05/24 07:50:39;;;;;;;;;;;;;;;25.13;46.09;93821.41;5071002;28;19925;-85
2021/05/24 07:53:05;;;;;;;;;;;;;;;25.11;48.30;93815.63;5071151;28;19925;-85
2021/05/24 07:55:32;;;;;;;;;;;;;;;25.43;47.47;93806.97;5071370;28;19929;-85
2021/05/24 07:57:58;;;;;;;;;;;;;;;25.58;46.82;93803.34;5070644;28;19924;-85
2021/05/24 08:00:26;;;;;;;;;;;;;;;25.40;47.25;93820.69;5071155;28;19935;-85
2021/05/24 08:02:52;;;;;;;;;;;;;;;25.68;45.39;93831.31;5071042;28;19924;-86
2021/05/24 08:05:18;;;;;;;;;;;;;;;25.70;42.97;93826.56;5071078;28;19935;-85
2021/05/24 08:07:44;;;;;;;;;;;;;;;25.26;42.87;93825.91;5071306;28;19924;-86
2021/05/24 08:10:11;;;;;;;;;;;;;;;25.21;42.12;93820.72;5070814;28;19931;-86
2021/05/24 08:12:39;;;;;;;;;;;;;;;24.84;40.61;93819.72;5071012;28;20368;-84
2021/05/24 08:15:05;;;;;;;;;;;;;;;25.13;41.82;93819.53;5071061;28;19974;-84
2021/05/24 08:17:31;;;;;;;;;;;;;;;25.25;44.04;93811.22;5070729;28;19924;-84
2021/05/24 08:19:58;;;;;;;;;;;;;;;25.45;40.78;93814.56;5070882;28;19928;-85
2021/05/24 08:22:24;;;;;;;;;;;;;;;25.67;42.28;93813.16;5070618;28;19924;-84
2021/05/24 08:24:50;;;;;;;;;;;;;;;25.82;41.47;93825.31;5070912;28;19931;-85
2021/05/24 08:27:16;;;;;;;;;;;;;;;25.89;41.83;93817.78;5070700;28;20311;-87
2021/05/24 08:29:43;;;;;;;;;;;;;;;26.09;40.91;93814.00;5070778;28;19935;-86
2021/05/24 08:32:09;;;;;;;;;;;;;;;26.01;39.95;93809.44;5070648;28;20314;-86
2021/05/24 08:34:35;;;;;;;;;;;;;;;25.84;42.00;93810.00;5070688;28;19935;-85
2021/05/24 08:37:01;;;;;;;;;;;;;;;25.75;41.12;93805.38;5070434;28;20388;-83
2021/05/24 08:39:27;;;;;;;;;;;;;;;25.82;41.28;93804.25;5070354;28;20372;-82
2021/05/24 08:41:53;;;;;;;;;;;;;;;25.83;40.40;93801.31;5070684;28;19929;-82
2021/05/24 08:44:20;;;;;;;;;;;;;;;26.15;41.44;93791.00;5070287;28;19969;-82
2021/05/24 08:46:47;;;;;;;;;;;;;;;26.66;40.38;93791.03;5070615;28;19924;-85
2021/05/24 08:49:13;;;;;;;;;;;;;;;27.00;38.99;93791.63;5070575;28;19925;-83
2021/05/24 08:51:39;;;;;;;;;;;;;;;27.13;39.50;93795.28;5070061;28;19931;-83
2021/05/24 08:54:05;;;;;;;;;;;;;;;26.75;39.15;93794.50;5070657;28;19928;-82
2021/05/24 08:56:31;;;;;;;;;;;;;;;26.88;38.86;93792.91;5070411;28;19932;-82
2021/05/24 08:58:58;;;;;;;;;;;;;;;26.55;39.22;93785.97;5070345;28;19925;-83
2021/05/24 09:01:24;;;;;;;;;;;;;;;27.08;39.95;93778.50;5070146;28;19931;-84
2021/05/24 09:03:57;;;;;;;;;;;;;;;27.65;40.00;93779.00;5070049;28;20406;-83
2021/05/24 09:06:33;;;;;;;;;;;;;;;28.13;39.16;93760.81;5070028;28;19929;-84
2021/05/24 09:09:06;;;;;;;;;;;;;;;27.77;37.61;93761.81;5069476;28;19932;-84
2021/05/24 09:11:32;;;;;;;;;;;;;;;27.63;38.49;93765.31;5070062;28;20330;-87
2021/05/24 09:14:00;;;;;;;;;;;;;;;27.93;38.42;93768.25;5069710;28;19924;-86
2021/05/24 09:16:26;;;;;;;;;;;;;;;27.12;38.50;93762.84;5069823;28;19938;-85
2021/05/24 09:19:13;;;;;;;;;;;;;;;27.23;38.39;93763.41;5070055;28;19967;-87
2021/05/24 09:21:39;;;;;;;;;;;;;;;27.92;38.40;93758.78;5069670;28;19928;-87
2021/05/24 09:24:19;;;;;;;;;;;;;;;28.37;35.95;93759.69;5069927;28;19932;-88
2021/05/24 09:26:45;;;;;;;;;;;;;;;28.49;36.07;93754.56;5069845;28;19981;-87
2021/05/24 09:29:11;;;;;;;;;;;;;;;28.09;36.21;93757.25;5070033;28;19987;-88
2021/05/24 09:31:39;;;;;;;;;;;;;;;28.35;37.54;93761.81;5069128;28;20264;-87
2021/05/24 09:34:06;;;;;;;;;;;;;;;28.40;36.13;93762.47;5070030;28;19925;-87
2021/05/24 09:36:33;;;;;;;;;;;;;;;28.59;37.21;93758.75;5070045;28;19989;-87
2021/05/24 09:39:01;;;;;;;;;;;;;;;28.02;36.44;93762.97;5069522;28;19935;-87
2021/05/24 09:41:27;;;;;;;;;;;;;;;27.88;36.42;93763.09;5069465;28;19924;-86
2021/05/24 09:43:54;;;;;;;;;;;;;;;27.96;35.96;93764.97;5069779;28;19990;-87
2021/05/24 09:46:21;;;;;;;;;;;;;;;28.33;36.33;93761.38;5069473;28;19929;-86
2021/05/24 09:48:48;;;;;;;;;;;;;;;28.81;35.50;93759.69;5069652;28;19928;-88
2021/05/24 09:51:16;;;;;;;;;;;;;;;28.99;34.20;93762.34;5069580;28;19935;-87
2021/05/24 09:53:54;;;;;;;;;;;;;;;27.88;34.79;93753.31;5070877;28;19932;-88
2021/05/24 09:56:21;;;;;;;;;;;;;;;28.21;36.36;93754.00;5071114;28;19928;-88
2021/05/24 09:58:57;;;;;;;;;;;;;;;28.56;33.05;93754.09;5069581;28;19925;-87
2021/05/24 10:01:30;;;;;;;;;;;;;;;28.84;32.42;93756.44;5069327;28;20368;-87
2021/05/24 10:03:57;;;;;;;;;;;;;;;29.44;32.79;93751.34;5069583;28;20030;-87
2021/05/24 10:06:23;;;;;;;;;;;;;;;29.72;31.39;93750.22;5069460;28;19924;-89
2021/05/24 10:08:50;;;;;;;;;;;;;;;29.79;30.83;93750.47;5068691;28;20299;-88
2021/05/24 10:11:16;;;;;;;;;;;;;;;29.71;29.74;93740.72;5066227;28;19974;-87
2021/05/24 10:13:42;;;;;;;;;;;;;;;29.73;31.09;93739.31;5069183;28;19924;-87
2021/05/24 10:16:12;;;;;;;;;;;;;;;29.73;29.90;93735.88;5068628;28;19936;-87
2021/05/24 10:18:38;;;;;;;;;;;;;;;29.60;30.34;93742.91;5065565;28;20202;-87
2021/05/24 10:21:04;;;;;;;;;;;;;;;29.13;29.76;93746.28;5069146;28;20353;-87
2021/05/24 10:23:31;;;;;;;;;;;;;;;29.36;28.72;93743.44;5071719;28;19928;-87
2021/05/24 10:26:00;;;;;;;;;;;;;;;29.27;27.77;93744.25;5072701;28;20930;-86
2021/05/24 10:28:26;;;;;;;;;;;;;;;29.33;29.56;93743.00;5072804;28;19924;-89
2021/05/24 10:30:52;;;;;;;;;;;;;;;29.44;30.39;93735.47;5072806;28;19928;-88
2021/05/24 10:33:20;;;;;;;;;;;;;;;29.70;29.68;93731.97;5072929;28;19925;-86
2021/05/24 10:35:46;;;;;;;;;;;;;;;29.90;29.61;93726.28;5072996;28;20299;-88
2021/05/24 10:38:29;;;;;;;;;;;;;;;30.08;28.77;93725.09;5072884;28;20379;-86
2021/05/24 10:41:06;;;;;;;;;;;;;;;29.94;27.46;93724.56;5068602;28;19925;-84
2021/05/24 10:43:42;;;;;;;;;;;;;;;29.62;27.77;93726.72;5072467;28;19924;-85
2021/05/24 10:46:23;;;;;;;;;;;;;;;29.82;28.84;93717.28;5072847;28;20202;-87
2021/05/24 10:48:53;;;;;;;;;;;;;;;30.06;29.75;93713.25;5059701;28;20387;-86
2021/05/24 10:51:19;;;;;;;;;;;;;;;29.68;28.08;93713.00;5072661;28;19933;-84
2021/05/24 10:53:49;;;;;;;;;;;;;;;29.76;30.29;93713.28;5072633;28;19924;-85
2021/05/24 10:56:17;;;;;;;;;;;;;;;30.10;30.72;93714.19;5072626;28;20352;-86
2021/05/24 10:58:43;;;;;;;;;;;;;;;30.32;30.00;93709.69;5072304;28;20447;-86
2021/05/24 11:01:09;;;;;;;;;;;;;;;30.76;28.60;93698.75;5073434;28;20360;-84
2021/05/24 11:03:38;;;;;;;;;;;;;;;30.77;26.59;93703.75;5072737;28;19935;-85
2021/05/24 11:06:07;;;;;;;;;;;;;;;30.08;27.67;93701.25;5072701;28;19947;-85
2021/05/24 11:08:35;;;;;;;;;;;;;;;29.69;27.20;93706.63;5072480;28;20283;-85
2021/05/24 11:11:16;;;;;;;;;;;;;;;29.80;26.91;93709.66;5072623;28;19931;-84
2021/05/24 11:13:52;;;;;;;;;;;;;;;29.57;28.16;93703.88;5072432;28;19985;-85
2021/05/24 11:16:18;;;;;;;;;;;;;;;29.06;30.22;93718.47;5072099;28;19924;-86
2021/05/24 11:18:46;;;;;;;;;;;;;;;28.89;30.89;93711.34;5072000;28;19924;-87
2021/05/24 11:21:16;;;;;;;;;;;;;;;29.17;30.01;93704.91;5072239;28;19925;-85
2021/05/24 11:24:02;;;;;;;;;;;;;;;29.05;27.96;93705.53;5072200;28;19979;-85
2021/05/24 11:26:30;;;;;;;;;;;;;;;28.59;28.44;93705.88;5071950;28;19928;-83
2021/05/24 11:28:59;;;;;;;;;;;;;;;28.57;29.86;93704.66;5071678;28;19928;-83
2021/05/24 11:31:26;;;;;;;;;;;;;;;28.49;29.31;93698.28;5072094;28;19925;-83
2021/05/24 11:33:54;;;;;;;;;;;;;;;28.58;29.76;93690.34;5071478;28;19932;-84
2021/05/24 11:36:42;;;;;;;;;;;;;;;28.50;28.17;93697.97;5053378;28;19959;-83
2021/05/24 11:39:09;;;;;;;;;;;;;;;28.49;28.71;93699.06;5051883;28;19986;-83
2021/05/24 11:41:39;;;;;;;;;;;;;;;28.68;29.80;93692.66;5051948;28;19928;-84
2021/05/24 11:44:06;;;;;;;;;;;;;;;28.51;30.00;93699.50;5051671;28;19924;-84
2021/05/24 11:46:41;;;;;;;;;;;;;;;28.10;29.01;93696.19;5052041;28;19935;-83
2021/05/24 11:49:08;;;;;;;;;;;;;;;27.92;30.67;93697.25;5051474;28;20962;-83
2021/05/24 11:51:34;;;;;;;;;;;;;;;28.21;29.22;93686.13;5051311;28;19940;-84
2021/05/24 11:54:01;;;;;;;;;;;;;;;28.51;31.89;93683.66;5051819;28;19931;-84
2021/05/24 11:56:35;;;;;;;;;;;;;;;28.43;29.34;93687.09;5051795;28;19935;-83
2021/05/24 11:59:01;;;;;;;;;;;;;;;27.97;30.08;93674.16;5051238;28;20435;-84
2021/05/24 12:01:29;;;;;;;;;;;;;;;27.70;31.44;93675.94;5051620;28;19990;-83
2021/05/24 12:03:55;;;;;;;;;;;;;;;27.88;31.98;93670.72;5051441;28;20477;-84
2021/05/24 12:06:22;;;;;;;;;;;;;;;28.13;31.12;93671.81;5051023;28;20281;-84
2021/05/24 12:08:48;;;;;;;;;;;;;;;27.96;31.08;93675.22;5051318;28;19936;-84
2021/05/24 12:11:15;;;;;;;;;;;;;;;28.54;31.13;93674.34;5051254;28;20381;-84
2021/05/24 12:14:05;;;;;;;;;;;;;;;29.30;29.29;93666.13;5037963;28;19991;-83
2021/05/24 12:16:32;;;;;;;;;;;;;;;29.95;30.23;93658.00;5017754;28;19980;-83
2021/05/24 12:18:59;;;;;;;;;;;;;;;29.56;29.26;93655.44;5031174;28;19925;-84
2021/05/24 12:21:30;;;;;;;;;;;;;;;29.18;29.54;93650.91;5032007;28;19933;-82
2021/05/24 12:23:58;;;;;;;;;;;;;;;29.76;30.44;93644.44;5031537;28;20280;-83
2021/05/24 12:26:24;;;;;;;;;;;;;;;30.21;29.88;93654.44;5031469;28;19991;-82
2021/05/24 12:28:50;;;;;;;;;;;;;;;30.52;29.51;93644.53;5031671;28;19925;-81
2021/05/24 12:31:16;;;;;;;;;;;;;;;30.92;28.19;93649.31;5042261;28;19959;-82
2021/05/24 12:33:44;;;;;;;;;;;;;;;31.15;26.73;93654.19;5049206;28;19936;-82
2021/05/24 12:36:10;;;;;;;;;;;;;;;30.83;26.65;93653.94;5034458;28;19929;-82
2021/05/24 12:38:44;;;;;;;;;;;;;;;30.43;26.64;93649.13;5031377;28;19929;-82
2021/05/24 12:41:11;;;;;;;;;;;;;;;29.95;29.56;93649.31;5031221;28;19932;-83
2021/05/24 12:43:47;;;;;;;;;;;;;;;29.90;29.39;93650.28;5029849;28;19975;-83
2021/05/24 12:46:13;;;;;;;;;;;;;;;29.71;30.09;93630.28;5030981;28;19925;-83